createdAt,value
2016-06-04T00:00:21.448Z,15.94
2016-06-04T00:01:21.435Z,15.97
2016-06-04T00:02:21.453Z,16
2016-06-04T00:03:21.440Z,16.01
2016-06-04T00:04:21.459Z,16
2016-06-04T00:05:21.430Z,16
2016-06-04T00:06:21.433Z,15.92
2016-06-04T00:07:21.436Z,15.93
2016-06-04T00:08:22.735Z,15.9
2016-06-04T00:09:21.879Z,15.86
2016-06-04T00:10:21.428Z,15.89
2016-06-04T00:11:21.712Z,15.87
2016-06-04T00:12:21.432Z,15.84
2016-06-04T00:13:22.780Z,15.78
2016-06-04T00:14:21.767Z,15.84
2016-06-04T00:15:22.066Z,15.84
2016-06-04T00:16:21.443Z,15.84
2016-06-04T00:17:23.087Z,15.78
2016-06-04T00:18:23.465Z,15.84
2016-06-04T00:19:22.764Z,15.9
2016-06-04T00:20:22.409Z,15.8
2016-06-04T00:21:21.426Z,15.8
2016-06-04T00:22:21.414Z,15.82
2016-06-04T00:23:21.947Z,15.8
2016-06-04T00:24:35.794Z,15.84
2016-06-04T00:25:21.406Z,15.76
2016-06-04T00:26:22.128Z,15.82
2016-06-04T00:27:21.411Z,15.86
2016-06-04T00:28:21.413Z,15.86
2016-06-04T00:29:21.401Z,15.82
2016-06-04T00:30:21.419Z,15.8
2016-06-04T00:31:21.406Z,15.8
2016-06-04T00:32:21.408Z,15.74
2016-06-04T00:33:21.396Z,15.82
2016-06-04T00:34:21.414Z,15.75
2016-06-04T00:35:21.402Z,15.78
2016-06-04T00:36:21.419Z,15.75
2016-06-04T00:37:21.250Z,15.78
2016-06-04T00:38:21.394Z,15.68
2016-06-04T00:39:21.413Z,15.65
2016-06-04T00:40:21.243Z,15.65
2016-06-04T00:41:21.402Z,15.62
2016-06-04T00:42:21.499Z,15.69
2016-06-04T00:43:21.423Z,15.6
2016-06-04T00:44:21.410Z,15.62
2016-06-04T00:45:21.381Z,15.68
2016-06-04T00:46:21.385Z,15.54
2016-06-04T00:47:21.387Z,15.64
2016-06-04T00:48:21.390Z,15.59
2016-06-04T00:49:21.376Z,15.62
2016-06-04T00:50:21.379Z,15.56
2016-06-04T00:51:21.382Z,15.5
2016-06-04T00:52:21.384Z,15.6
2016-06-04T00:53:21.388Z,15.5
2016-06-04T00:54:21.375Z,15.53
2016-06-04T00:55:21.392Z,15.67
2016-06-04T00:56:21.223Z,15.56
2016-06-04T00:57:21.367Z,15.56
2016-06-04T00:58:21.229Z,15.56
2016-06-04T00:59:21.400Z,15.53
2016-06-04T01:00:21.421Z,15.46
2016-06-04T01:01:21.472Z,15.44
2016-06-04T01:02:21.477Z,15.47
2016-06-04T01:03:21.513Z,15.43
2016-06-04T01:04:21.541Z,15.5
2016-06-04T01:05:21.572Z,15.47
2016-06-04T01:06:21.556Z,15.34
2016-06-04T01:07:21.554Z,15.38
2016-06-04T01:08:21.569Z,15.44
2016-06-04T01:09:21.580Z,15.34
2016-06-04T01:10:21.587Z,15.34
2016-06-04T01:11:21.688Z,15.31
2016-06-04T01:12:21.601Z,15.31
2016-06-04T01:13:21.608Z,15.32
2016-06-04T01:14:21.598Z,15.27
2016-06-04T01:15:21.602Z,15.27
2016-06-04T01:16:21.591Z,15.28
2016-06-04T01:17:21.595Z,15.23
2016-06-04T01:18:21.600Z,15.23
2016-06-04T01:19:21.603Z,15.29
2016-06-04T01:20:21.590Z,15.29
2016-06-04T01:21:21.594Z,15.23
2016-06-04T01:22:21.597Z,15.2
2016-06-04T01:23:21.600Z,15.16
2016-06-04T01:24:21.588Z,15.27
2016-06-04T01:25:21.591Z,15.11
2016-06-04T01:26:21.703Z,15.14
2016-06-04T01:27:23.097Z,15.01
2016-06-04T01:28:21.584Z,15.13
2016-06-04T01:29:23.399Z,15.09
2016-06-04T01:30:22.324Z,15.03
2016-06-04T01:31:21.609Z,15.06
2016-06-04T01:32:21.986Z,15.07
2016-06-04T01:33:21.582Z,15.03
2016-06-04T01:34:21.725Z,15.07
2016-06-04T01:35:22.666Z,15.01
2016-06-04T01:36:23.700Z,15.03
2016-06-04T01:37:22.625Z,15.01
2016-06-04T01:38:21.565Z,15.06
2016-06-04T01:39:21.567Z,15.06
2016-06-04T01:40:21.570Z,15.17
2016-06-04T01:41:22.245Z,15.16
2016-06-04T01:42:21.559Z,15.19
2016-06-04T01:43:21.562Z,15.13
2016-06-04T01:44:22.175Z,15.19
2016-06-04T01:45:21.583Z,15.17
2016-06-04T01:46:21.555Z,15.11
2016-06-04T01:47:21.558Z,15.19
2016-06-04T01:48:21.561Z,15.2
2016-06-04T01:49:21.563Z,15.16
2016-06-04T01:50:21.550Z,15.14
2016-06-04T01:51:21.552Z,15.1
2016-06-04T01:52:21.540Z,15.1
2016-06-04T01:53:21.543Z,15.06
2016-06-04T01:54:21.545Z,15.11
2016-06-04T01:55:21.548Z,14.98
2016-06-04T01:56:22.347Z,15.06
2016-06-04T01:57:21.538Z,15.09
2016-06-04T01:58:21.541Z,15.03
2016-06-04T01:59:21.527Z,15.06
2016-06-04T02:00:21.529Z,15.06
2016-06-04T02:01:21.533Z,15.01
2016-06-04T02:02:21.535Z,15.02
2016-06-04T02:03:21.537Z,15.03
2016-06-04T02:04:21.526Z,14.91
2016-06-04T02:05:21.528Z,14.98
2016-06-04T02:06:21.530Z,14.96
2016-06-04T02:07:21.534Z,14.98
2016-06-04T02:08:21.567Z,14.96
2016-06-04T02:09:21.522Z,14.98
2016-06-04T02:10:21.526Z,15.02
2016-06-04T02:11:22.138Z,14.96
2016-06-04T02:12:21.514Z,14.95
2016-06-04T02:13:21.503Z,14.96
2016-06-04T02:14:21.505Z,14.96
2016-06-04T02:15:21.508Z,14.94
2016-06-04T02:16:21.510Z,15.03
2016-06-04T02:17:21.513Z,15.02
2016-06-04T02:18:21.516Z,15.09
2016-06-04T02:19:21.503Z,15.07
2016-06-04T02:20:21.536Z,15.03
2016-06-04T02:21:21.508Z,15.03
2016-06-04T02:22:21.527Z,15.09
2016-06-04T02:23:21.499Z,15.06
2016-06-04T02:24:21.330Z,15.03
2016-06-04T02:25:21.332Z,15.03
2016-06-04T02:26:21.896Z,14.91
2016-06-04T02:27:21.493Z,14.91
2016-06-04T02:28:21.496Z,14.98
2016-06-04T02:29:21.482Z,14.94
2016-06-04T02:30:21.485Z,14.98
2016-06-04T02:31:21.504Z,14.91
2016-06-04T02:32:21.491Z,14.91
2016-06-04T02:33:21.478Z,14.86
2016-06-04T02:34:21.481Z,14.78
2016-06-04T02:35:21.468Z,14.81
2016-06-04T02:36:21.471Z,14.91
2016-06-04T02:37:21.473Z,14.83
2016-06-04T02:38:21.459Z,14.86
2016-06-04T02:39:21.463Z,14.84
2016-06-04T02:40:21.465Z,14.84
2016-06-04T02:41:21.984Z,14.86
2016-06-04T02:42:21.565Z,14.89
2016-06-04T02:43:21.473Z,14.84
2016-06-04T02:44:21.461Z,14.84
2016-06-04T02:45:22.573Z,14.8
2016-06-04T02:46:22.747Z,14.81
2016-06-04T02:47:22.313Z,14.86
2016-06-04T02:48:22.158Z,14.86
2016-06-04T02:49:22.489Z,14.88
2016-06-04T02:50:21.774Z,14.86
2016-06-04T02:51:21.464Z,14.89
2016-06-04T02:52:21.732Z,14.81
2016-06-04T02:53:21.500Z,14.89
2016-06-04T02:54:21.941Z,14.89
2016-06-04T02:55:21.444Z,14.84
2016-06-04T02:56:21.883Z,14.91
2016-06-04T02:58:21.279Z,14.86
2016-06-04T02:59:22.048Z,14.84
2016-06-04T03:00:22.082Z,14.98
2016-06-04T03:01:21.522Z,14.94
2016-06-04T03:03:21.277Z,14.94
2016-06-04T03:04:21.437Z,14.94
2016-06-04T03:05:21.440Z,14.91
2016-06-04T03:06:21.442Z,14.84
2016-06-04T03:07:21.429Z,14.98
2016-06-04T03:08:21.432Z,14.95
2016-06-04T03:09:21.418Z,14.96
2016-06-04T03:10:21.421Z,14.96
2016-06-04T03:11:21.267Z,14.94
2016-06-04T03:12:21.411Z,15.01
2016-06-04T03:13:21.398Z,15.02
2016-06-04T03:14:21.401Z,14.92
2016-06-04T03:15:21.403Z,15.03
2016-06-04T03:16:21.406Z,15.03
2016-06-04T03:17:21.409Z,15.06
2016-06-04T03:18:21.411Z,15.06
2016-06-04T03:19:21.400Z,15.06
2016-06-04T03:20:21.402Z,15.1
2016-06-04T03:21:21.404Z,15.16
2016-06-04T03:22:21.392Z,15.19
2016-06-04T03:23:21.456Z,15.21
2016-06-04T03:24:21.397Z,15.19
2016-06-04T03:25:21.383Z,15.28
2016-06-04T03:26:21.402Z,15.31
2016-06-04T03:27:21.389Z,15.34
2016-06-04T03:28:21.392Z,15.39
2016-06-04T03:29:21.394Z,15.54
2016-06-04T03:30:21.413Z,15.64
2016-06-04T03:31:21.385Z,15.8
2016-06-04T03:32:21.388Z,15.83
2016-06-04T03:33:21.389Z,15.97
2016-06-04T03:34:21.377Z,16.09
2016-06-04T03:35:21.379Z,16.21
2016-06-04T03:36:21.382Z,16.35
2016-06-04T03:37:21.384Z,16.48
2016-06-04T03:38:21.371Z,16.58
2016-06-04T03:39:21.374Z,16.66
2016-06-04T03:40:21.362Z,16.73
2016-06-04T03:41:21.629Z,16.86
2016-06-04T03:42:21.382Z,17
2016-06-04T03:43:21.384Z,17.06
2016-06-04T03:44:21.372Z,17.14
2016-06-04T03:45:21.375Z,17.31
2016-06-04T03:46:21.378Z,17.38
2016-06-04T03:47:21.381Z,17.49
2016-06-04T03:48:21.398Z,17.59
2016-06-04T03:49:21.370Z,17.78
2016-06-04T03:50:21.372Z,17.78
2016-06-04T03:51:21.360Z,18.17
2016-06-04T03:52:21.362Z,18.12
2016-06-04T03:53:21.366Z,18.35
2016-06-04T03:54:21.383Z,18.57
2016-06-04T03:55:21.386Z,18.81
2016-06-04T03:56:21.669Z,18.94
2016-06-04T03:57:21.376Z,19.18
2016-06-04T03:58:21.379Z,19.43
2016-06-04T03:59:21.397Z,19.71
2016-06-04T04:00:21.384Z,19.91
2016-06-04T04:01:21.215Z,20.11
2016-06-04T04:02:21.390Z,20.35
2016-06-04T04:03:22.158Z,20.64
2016-06-04T04:04:23.535Z,20.85
2016-06-04T04:05:22.335Z,21.12
2016-06-04T04:06:23.166Z,21.37
2016-06-04T04:07:22.746Z,21.59
2016-06-04T04:08:21.749Z,21.9
2016-06-04T04:09:21.548Z,22.05
2016-06-04T04:10:21.411Z,22.33
2016-06-04T04:11:21.414Z,22.55
2016-06-04T04:12:21.401Z,22.9
2016-06-04T04:13:23.637Z,23.1
2016-06-04T04:14:21.422Z,23.39
2016-06-04T04:15:22.753Z,23.54
2016-06-04T04:16:23.708Z,23.83
2016-06-04T04:17:21.945Z,24.1
2016-06-04T04:18:21.448Z,24.16
2016-06-04T04:19:22.028Z,24.47
2016-06-04T04:20:21.531Z,24.71
2016-06-04T04:21:22.003Z,24.91
2016-06-04T04:22:21.459Z,25.2
2016-06-04T04:23:21.461Z,25.35
2016-06-04T04:24:21.464Z,25.62
2016-06-04T04:25:21.327Z,25.85
2016-06-04T04:26:21.548Z,26.07
2016-06-04T04:27:21.488Z,26.26
2016-06-04T04:28:21.491Z,26.54
2016-06-04T04:29:21.509Z,26.76
2016-06-04T04:30:21.511Z,26.91
2016-06-04T04:31:21.513Z,27.12
2016-06-04T04:32:21.532Z,27.22
2016-06-04T04:33:21.535Z,27.25
2016-06-04T04:34:21.554Z,27.39
2016-06-04T04:35:21.556Z,27.44
2016-06-04T04:36:21.559Z,27.44
2016-06-04T04:37:21.562Z,27.39
2016-06-04T04:38:21.564Z,27.28
2016-06-04T04:39:21.583Z,27.21
2016-06-04T04:40:21.601Z,27.13
2016-06-04T04:41:21.823Z,27.03
2016-06-04T04:42:21.715Z,26.97
2016-06-04T04:43:21.625Z,26.87
2016-06-04T04:44:21.628Z,26.67
2016-06-04T04:45:21.631Z,26.69
2016-06-04T04:46:21.648Z,26.66
2016-06-04T04:47:21.667Z,26.63
2016-06-04T04:48:21.669Z,26.69
2016-06-04T04:49:21.672Z,26.67
2016-06-04T04:50:21.690Z,26.7
2016-06-04T04:51:21.709Z,26.84
2016-06-04T04:52:21.695Z,26.85
2016-06-04T04:53:21.698Z,26.89
2016-06-04T04:54:21.717Z,26.91
2016-06-04T04:55:21.736Z,26.89
2016-06-04T04:56:22.003Z,27
2016-06-04T04:57:21.677Z,26.99
2016-06-04T04:58:21.775Z,27.03
2016-06-04T04:59:21.761Z,27.14
2016-06-04T05:00:21.763Z,27.29
2016-06-04T05:01:21.782Z,27.57
2016-06-04T05:02:21.785Z,27.81
2016-06-04T05:03:21.804Z,27.96
2016-06-04T05:04:21.807Z,28.39
2016-06-04T05:05:21.809Z,28.73
2016-06-04T05:06:21.827Z,29.06
2016-06-04T05:07:21.830Z,29.33
2016-06-04T05:08:21.848Z,29.67
2016-06-04T05:09:21.851Z,29.92
2016-06-04T05:10:21.713Z,30.26
2016-06-04T05:11:21.918Z,30.54
2016-06-04T05:12:21.890Z,30.92
2016-06-04T05:13:21.893Z,31.23
2016-06-04T05:14:21.912Z,31.56
2016-06-04T05:15:21.929Z,31.99
2016-06-04T05:16:21.931Z,32.25
2016-06-04T05:17:21.951Z,32.5
2016-06-04T05:18:21.953Z,32.56
2016-06-04T05:19:21.972Z,32.75
2016-06-04T05:20:21.990Z,33.07
2016-06-04T05:21:21.993Z,33.14
2016-06-04T05:22:22.276Z,33.37
2016-06-04T05:23:22.810Z,33.54
2016-06-04T05:24:22.048Z,33.73
2016-06-04T05:25:22.644Z,33.94
2016-06-04T05:26:22.959Z,34.1
2016-06-04T05:27:22.274Z,34.25
2016-06-04T05:28:22.339Z,34.4
2016-06-04T05:29:22.577Z,34.46
2016-06-04T05:30:22.126Z,34.61
2016-06-04T05:32:22.444Z,34.72
2016-06-04T05:33:23.713Z,34.82
2016-06-04T05:34:37.652Z,34.78
2016-06-04T05:35:24.265Z,34.73
2016-06-04T05:36:23.485Z,34.82
2016-06-04T05:37:23.630Z,34.8
2016-06-04T05:38:22.523Z,34.77
2016-06-04T05:39:22.291Z,34.96
2016-06-04T05:40:22.279Z,35.18
2016-06-04T05:41:22.140Z,35.36
2016-06-04T05:42:22.440Z,35.48
2016-06-04T05:43:22.317Z,35.77
2016-06-04T05:44:22.335Z,36.01
2016-06-04T05:45:22.370Z,36.23
2016-06-04T05:46:22.356Z,36.34
2016-06-04T05:47:22.390Z,36.34
2016-06-04T05:48:22.393Z,36.16
2016-06-04T05:49:22.428Z,35.94
2016-06-04T05:50:22.430Z,35.77
2016-06-04T05:51:22.464Z,35.75
2016-06-04T05:52:22.467Z,35.66
2016-06-04T05:53:22.500Z,35.52
2016-06-04T05:54:22.487Z,35.58
2016-06-04T05:55:22.522Z,35.7
2016-06-04T05:56:22.852Z,35.77
2016-06-04T05:57:22.542Z,35.94
2016-06-04T05:58:22.561Z,36.05
2016-06-04T05:59:22.580Z,36.15
2016-06-04T06:00:22.597Z,36.34
2016-06-04T06:01:22.616Z,36.57
2016-06-04T06:02:22.618Z,36.69
2016-06-04T06:03:22.653Z,36.81
2016-06-04T06:04:22.655Z,37
2016-06-04T06:05:22.689Z,37.17
2016-06-04T06:06:22.691Z,37.27
2016-06-04T06:07:22.726Z,37.5
2016-06-04T06:08:22.728Z,37.5
2016-06-04T06:09:22.762Z,37.41
2016-06-04T06:10:22.765Z,37.56
2016-06-04T06:11:23.612Z,37.74
2016-06-04T06:12:22.817Z,37.94
2016-06-04T06:13:22.820Z,38.12
2016-06-04T06:14:22.854Z,38.3
2016-06-04T06:15:22.857Z,38.37
2016-06-04T06:16:22.890Z,38.49
2016-06-04T06:17:22.893Z,38.71
2016-06-04T06:18:22.943Z,38.6
2016-06-04T06:19:22.945Z,38.69
2016-06-04T06:20:22.964Z,38.72
2016-06-04T06:21:22.982Z,38.78
2016-06-04T06:22:23.000Z,38.98
2016-06-04T06:23:23.019Z,39.13
2016-06-04T06:24:23.067Z,39.25
2016-06-04T06:25:23.055Z,39.36
2016-06-04T06:26:23.731Z,39.38
2016-06-04T06:27:23.092Z,39.28
2016-06-04T06:28:23.110Z,38.79
2016-06-04T06:29:23.144Z,38.37
2016-06-04T06:30:23.178Z,38.25
2016-06-04T06:31:23.180Z,38.28
2016-06-04T06:32:23.214Z,38.41
2016-06-04T06:33:23.233Z,38.32
2016-06-04T06:34:23.252Z,38.47
2016-06-04T06:35:23.269Z,38.52
2016-06-04T06:36:23.288Z,38.57
2016-06-04T06:37:23.322Z,38.63
2016-06-04T06:38:23.340Z,38.72
2016-06-04T06:39:23.343Z,38.79
2016-06-04T06:40:23.393Z,38.86
2016-06-04T06:41:24.629Z,38.91
2016-06-04T06:42:25.195Z,38.98
2016-06-04T06:43:24.760Z,38.93
2016-06-04T06:44:24.403Z,38.91
2016-06-04T06:45:24.734Z,38.83
2016-06-04T06:46:24.393Z,38.75
2016-06-04T06:47:24.287Z,38.74
2016-06-04T06:48:23.570Z,38.74
2016-06-04T06:49:23.557Z,38.75
2016-06-04T06:50:25.200Z,38.74
2016-06-04T06:51:23.782Z,38.63
2016-06-04T06:52:24.784Z,38.53
2016-06-04T06:53:24.756Z,38.72
2016-06-04T06:54:26.602Z,38.83
2016-06-04T06:55:23.698Z,38.91
2016-06-04T06:56:23.733Z,38.98
2016-06-04T06:58:23.753Z,39.09
2016-06-04T06:59:23.866Z,39.29
2016-06-04T07:00:23.790Z,39.36
2016-06-04T07:01:23.809Z,39.45
2016-06-04T07:02:23.827Z,39.55
2016-06-04T07:03:23.877Z,39.22
2016-06-04T07:04:23.879Z,39.11
2016-06-04T07:05:23.913Z,38.88
2016-06-04T07:06:23.916Z,38.86
2016-06-04T07:07:23.966Z,38.59
2016-06-04T07:08:23.968Z,38.44
2016-06-04T07:09:24.001Z,38.59
2016-06-04T07:10:24.020Z,38.74
2016-06-04T07:11:24.851Z,38.96
2016-06-04T07:12:24.040Z,39.29
2016-06-04T07:13:24.090Z,39.6
2016-06-04T07:14:24.094Z,39.72
2016-06-04T07:15:24.127Z,39.94
2016-06-04T07:16:24.161Z,40.1
2016-06-04T07:17:24.164Z,40.26
2016-06-04T07:18:24.198Z,40.27
2016-06-04T07:19:24.216Z,40.08
2016-06-04T07:20:24.234Z,39.91
2016-06-04T07:21:24.268Z,39.86
2016-06-04T07:22:24.271Z,40
2016-06-04T07:23:24.321Z,40.13
2016-06-04T07:24:24.323Z,40.34
2016-06-04T07:25:24.341Z,40.6
2016-06-04T07:26:24.454Z,40.73
2016-06-04T07:27:24.394Z,40.94
2016-06-04T07:28:24.428Z,41.08
2016-06-04T07:29:24.447Z,41.08
2016-06-04T07:30:24.464Z,41.13
2016-06-04T07:31:24.483Z,41.08
2016-06-04T07:32:24.516Z,41.11
2016-06-04T07:33:24.535Z,41.21
2016-06-04T07:34:24.569Z,41.23
2016-06-04T07:35:24.588Z,41.3
2016-06-04T07:36:24.621Z,41.1
2016-06-04T07:37:24.639Z,40.8
2016-06-04T07:38:24.674Z,40.34
2016-06-04T07:39:24.677Z,39.67
2016-06-04T07:40:24.710Z,39.28
2016-06-04T07:41:26.572Z,39.04
2016-06-04T07:42:24.810Z,38.87
2016-06-04T07:43:24.766Z,38.79
2016-06-04T07:44:24.799Z,38.74
2016-06-04T07:45:24.801Z,38.69
2016-06-04T07:46:24.851Z,38.69
2016-06-04T07:47:24.854Z,38.59
2016-06-04T07:48:24.873Z,38.6
2016-06-04T07:49:24.906Z,38.76
2016-06-04T07:50:24.924Z,38.57
2016-06-04T07:51:24.959Z,38.6
2016-06-04T07:52:24.820Z,38.69
2016-06-04T07:53:24.995Z,38.81
2016-06-04T07:54:25.013Z,38.93
2016-06-04T07:55:25.032Z,39.09
2016-06-04T07:56:25.315Z,39.06
2016-06-04T07:57:25.084Z,39.11
2016-06-04T07:58:25.103Z,39.21
2016-06-04T07:59:26.105Z,39.14
2016-06-04T08:00:26.373Z,39.16
2016-06-04T08:01:25.361Z,39.3
2016-06-04T08:02:26.628Z,39.5
2016-06-04T08:03:39.897Z,39.62
2016-06-04T08:04:26.228Z,39.57
2016-06-04T08:05:26.246Z,39.62
2016-06-04T08:06:25.717Z,39.6
2016-06-04T08:07:26.189Z,39.7
2016-06-04T08:08:25.833Z,39.64
2016-06-04T08:09:27.632Z,39.66
2016-06-04T08:10:25.369Z,39.62
2016-06-04T08:11:25.387Z,39.67
2016-06-04T08:12:26.937Z,39.67
2016-06-04T08:13:27.533Z,39.66
2016-06-04T08:14:25.895Z,39.64
2016-06-04T08:15:25.492Z,39.69
2016-06-04T08:16:25.729Z,39.72
2016-06-04T08:17:27.029Z,39.85
2016-06-04T08:18:25.562Z,39.89
2016-06-04T08:19:25.581Z,39.88
2016-06-04T08:20:25.740Z,39.92
2016-06-04T08:21:25.617Z,40
2016-06-04T08:22:25.635Z,39.75
2016-06-04T08:23:25.653Z,39.57
2016-06-04T08:24:25.688Z,39.45
2016-06-04T08:25:25.550Z,39.3
2016-06-04T08:26:25.740Z,39.13
2016-06-04T08:27:25.587Z,38.87
2016-06-04T08:28:25.776Z,38.71
2016-06-04T08:29:25.795Z,38.59
2016-06-04T08:30:25.656Z,38.49
2016-06-04T08:31:25.831Z,38.19
2016-06-04T08:32:25.850Z,37.96
2016-06-04T08:33:25.899Z,37.41
2016-06-04T08:34:25.903Z,37.31
2016-06-04T08:35:25.920Z,37.27
2016-06-04T08:36:38.219Z,37.17
2016-06-04T08:37:25.988Z,37.15
2016-06-04T08:38:26.210Z,37.13
2016-06-04T08:39:26.009Z,37.05
2016-06-04T08:40:26.027Z,37.09
2016-06-04T08:41:26.061Z,37.03
2016-06-04T08:42:27.282Z,36.94
2016-06-04T08:43:26.098Z,36.84
2016-06-04T08:44:26.117Z,36.56
2016-06-04T08:45:26.135Z,35.87
2016-06-04T08:46:26.169Z,35.34
2016-06-04T08:47:26.171Z,34.82
2016-06-04T08:48:26.034Z,34.54
2016-06-04T08:49:26.083Z,34.5
2016-06-04T08:50:26.226Z,34.53
2016-06-04T08:51:26.260Z,34.56
2016-06-04T08:52:26.279Z,34.59
2016-06-04T08:53:26.297Z,34.59
2016-06-04T08:54:26.315Z,34.58
2016-06-04T08:55:26.334Z,34.42
2016-06-04T08:56:26.351Z,34.43
2016-06-04T08:57:26.386Z,34.3
2016-06-04T08:58:26.420Z,34.06
2016-06-04T08:59:26.406Z,33.9
2016-06-04T09:00:26.441Z,33.81
2016-06-04T09:01:26.444Z,33.39
2016-06-04T09:02:26.478Z,33.03
2016-06-04T09:03:26.495Z,32.7
2016-06-04T09:04:26.498Z,32.51
2016-06-04T09:05:26.533Z,32.19
2016-06-04T09:06:26.536Z,31.92
2016-06-04T09:07:26.553Z,31.73
2016-06-04T09:08:26.556Z,31.35
2016-06-04T09:09:26.575Z,31.26
2016-06-04T09:10:26.593Z,30.98
2016-06-04T09:11:26.611Z,30.86
2016-06-04T09:12:26.630Z,30.72
2016-06-04T09:13:26.476Z,30.57
2016-06-04T09:14:26.650Z,30.51
2016-06-04T09:15:26.512Z,30.43
2016-06-04T09:16:26.672Z,30.32
2016-06-04T09:17:26.690Z,30.15
2016-06-04T09:18:26.692Z,29.95
2016-06-04T09:19:27.711Z,29.67
2016-06-04T09:20:28.026Z,29.48
2016-06-04T09:21:27.794Z,29.21
2016-06-04T09:22:29.735Z,29.06
2016-06-04T09:23:27.456Z,28.88
2016-06-04T09:24:26.771Z,28.86
2016-06-04T09:25:27.227Z,28.7
2016-06-04T09:26:27.245Z,28.51
2016-06-04T09:27:26.857Z,28.44
2016-06-04T09:28:41.406Z,28.11
2016-06-04T09:29:28.082Z,28
2016-06-04T09:30:26.693Z,28.07
2016-06-04T09:31:27.086Z,27.87
2016-06-04T09:32:26.870Z,27.87
2016-06-04T09:33:27.234Z,27.88
2016-06-04T09:34:27.033Z,27.69
2016-06-04T09:35:26.879Z,27.74
2016-06-04T09:36:26.897Z,27.7
2016-06-04T09:37:26.916Z,27.67
2016-06-04T09:38:26.919Z,27.77
2016-06-04T09:39:27.124Z,27.79
2016-06-04T09:40:26.939Z,27.85
2016-06-04T09:41:26.942Z,27.99
2016-06-04T09:42:26.976Z,28.22
2016-06-04T09:43:26.994Z,28.43
2016-06-04T09:44:26.966Z,28.51
2016-06-04T09:45:26.983Z,28.44
2016-06-04T09:46:27.002Z,28.49
2016-06-04T09:47:27.005Z,28.51
2016-06-04T09:48:27.007Z,28.44
2016-06-04T09:49:27.026Z,28.48
2016-06-04T09:50:27.029Z,28.49
2016-06-04T09:51:27.047Z,28.41
2016-06-04T09:52:27.065Z,28.51
2016-06-04T09:53:27.051Z,28.37
2016-06-04T09:54:27.071Z,28.11
2016-06-04T09:55:27.073Z,28.03
2016-06-04T09:56:27.092Z,28.03
2016-06-04T09:57:26.969Z,27.99
2016-06-04T09:58:27.082Z,28.03
2016-06-04T09:59:27.131Z,28.18
2016-06-04T10:00:27.134Z,28.25
2016-06-04T10:01:27.136Z,28.34
2016-06-04T10:02:27.139Z,28.37
2016-06-04T10:03:27.157Z,28.41
2016-06-04T10:04:27.160Z,28.3
2016-06-04T10:05:27.195Z,28.34
2016-06-04T10:06:27.242Z,28.22
2016-06-04T10:07:27.256Z,28.29
2016-06-04T10:08:27.303Z,28.31
2016-06-04T10:09:27.348Z,28.41
2016-06-04T10:10:27.367Z,28.37
2016-06-04T10:11:27.880Z,28.39
2016-06-04T10:12:27.409Z,28.4
2016-06-04T10:13:27.922Z,28.39
2016-06-04T10:14:27.465Z,28.43
2016-06-04T10:15:27.459Z,28.41
2016-06-04T10:16:27.465Z,28.43
2016-06-04T10:17:27.485Z,28.44
2016-06-04T10:18:27.507Z,28.46
2016-06-04T10:19:27.420Z,28.48
2016-06-04T10:20:27.519Z,28.48
2016-06-04T10:21:38.351Z,28.37
2016-06-04T10:22:27.542Z,28.21
2016-06-04T10:23:27.546Z,28.12
2016-06-04T10:24:27.551Z,28.09
2016-06-04T10:25:27.570Z,28.14
2016-06-04T10:26:27.573Z,28.14
2016-06-04T10:27:27.593Z,28.02
2016-06-04T10:28:27.610Z,28.07
2016-06-04T10:29:28.380Z,28.06
2016-06-04T10:30:27.460Z,28.09
2016-06-04T10:31:27.619Z,28.09
2016-06-04T10:32:27.638Z,28.03
2016-06-04T10:33:27.640Z,27.84
2016-06-04T10:34:27.659Z,27.72
2016-06-04T10:35:27.662Z,27.65
2016-06-04T10:36:27.679Z,27.72
2016-06-04T10:37:28.635Z,27.69
2016-06-04T10:38:28.326Z,27.75
2016-06-04T10:39:27.688Z,27.77
2016-06-04T10:40:29.409Z,27.75
2016-06-04T10:41:28.678Z,27.78
2016-06-04T10:42:28.227Z,27.81
2016-06-04T10:43:28.621Z,27.74
2016-06-04T10:44:28.045Z,27.62
2016-06-04T10:45:27.751Z,27.54
2016-06-04T10:46:29.691Z,27.36
2016-06-04T10:47:27.773Z,27.24
2016-06-04T10:48:28.025Z,27.14
2016-06-04T10:49:27.620Z,27.03
2016-06-04T10:53:42.006Z,27.06
2016-06-04T10:54:28.072Z,27.28
2016-06-04T10:55:27.840Z,27.32
2016-06-04T10:56:27.843Z,27.41
2016-06-04T10:57:27.861Z,27.49
2016-06-04T10:58:28.223Z,27.6
2016-06-04T10:59:27.883Z,27.78
2016-06-04T11:00:27.869Z,27.69
2016-06-04T11:01:27.888Z,27.82
2016-06-04T11:02:27.891Z,27.85
2016-06-04T11:03:27.894Z,28.03
2016-06-04T11:04:27.755Z,28.14
2016-06-04T11:05:27.914Z,28.09
2016-06-04T11:06:27.932Z,28.24
2016-06-04T11:07:27.951Z,28.34
2016-06-04T11:08:27.938Z,28.37
2016-06-04T11:09:27.799Z,28.37
2016-06-04T11:10:27.959Z,28.52
2016-06-04T11:11:27.961Z,28.58
2016-06-04T11:12:27.980Z,28.61
2016-06-04T11:13:28.076Z,28.66
2016-06-04T11:14:28.017Z,28.67
2016-06-04T11:15:28.395Z,28.86
2016-06-04T11:16:28.023Z,29.02
2016-06-04T11:17:28.025Z,28.92
2016-06-04T11:18:28.028Z,29.04
2016-06-04T11:19:27.890Z,29.24
2016-06-04T11:20:28.048Z,29.42
2016-06-04T11:21:28.051Z,29.52
2016-06-04T11:22:27.913Z,29.6
2016-06-04T11:23:27.931Z,29.76
2016-06-04T11:24:27.934Z,29.74
2016-06-04T11:25:28.093Z,29.92
2016-06-04T11:26:28.111Z,29.87
2016-06-04T11:27:28.895Z,29.94
2016-06-04T11:28:28.148Z,30.01
2016-06-04T11:29:28.151Z,30.13
2016-06-04T11:30:28.138Z,30.2
2016-06-04T11:31:28.141Z,30.35
2016-06-04T11:32:28.158Z,30.35
2016-06-04T11:33:28.177Z,30.45
2016-06-04T11:34:28.196Z,30.42
2016-06-04T11:35:28.183Z,30.45
2016-06-04T11:36:28.201Z,30.53
2016-06-04T11:37:28.203Z,30.6
2016-06-04T11:38:28.222Z,30.61
2016-06-04T11:39:28.255Z,30.62
2016-06-04T11:40:28.087Z,30.58
2016-06-04T11:41:28.354Z,30.49
2016-06-04T11:42:28.263Z,30.32
2016-06-04T11:43:28.265Z,30.27
2016-06-04T11:44:28.285Z,30.13
2016-06-04T11:45:28.146Z,30.24
2016-06-04T11:46:28.305Z,30.29
2016-06-04T11:47:28.309Z,30.31
2016-06-04T11:48:28.327Z,30.42
2016-06-04T11:49:28.329Z,30.37
2016-06-04T11:50:28.332Z,30.37
2016-06-04T11:51:28.367Z,30.35
2016-06-04T11:52:28.369Z,30.19
2016-06-04T11:53:28.372Z,30.26
2016-06-04T11:54:28.390Z,30.29
2016-06-04T11:55:28.392Z,30.34
2016-06-04T11:56:30.410Z,30.39
2016-06-04T11:57:29.336Z,30.46
2016-06-04T11:58:29.416Z,30.39
2016-06-04T11:59:29.216Z,30.6
2016-06-04T12:00:42.625Z,30.62
2016-06-04T12:01:28.658Z,30.75
2016-06-04T12:02:29.208Z,30.79
2016-06-04T12:03:28.476Z,30.8
2016-06-04T12:04:28.636Z,30.73
2016-06-04T12:05:28.841Z,30.75
2016-06-04T12:06:28.625Z,30.73
2016-06-04T12:07:28.518Z,30.72
2016-06-04T12:08:28.522Z,30.8
2016-06-04T12:09:42.977Z,30.84
2016-06-04T12:10:28.793Z,30.83
2016-06-04T12:11:29.920Z,30.92
2016-06-04T12:12:29.688Z,30.99
2016-06-04T12:13:28.769Z,30.95
2016-06-04T12:14:28.599Z,30.95
2016-06-04T12:15:28.587Z,30.92
2016-06-04T12:16:28.715Z,31.01
2016-06-04T12:17:28.607Z,30.99
2016-06-04T12:18:28.626Z,31.02
2016-06-04T12:19:28.629Z,30.98
2016-06-04T12:20:28.648Z,30.99
2016-06-04T12:21:28.665Z,30.92
2016-06-04T12:22:28.668Z,30.73
2016-06-04T12:23:28.670Z,30.7
2016-06-04T12:24:28.689Z,30.58
2016-06-04T12:25:28.692Z,30.51
2016-06-04T12:26:28.725Z,30.43
2016-06-04T12:27:28.714Z,30.34
2016-06-04T12:28:28.731Z,30.17
2016-06-04T12:29:28.734Z,30.1
2016-06-04T12:30:28.752Z,30.07
2016-06-04T12:31:28.755Z,30.07
2016-06-04T12:32:28.758Z,30.13
2016-06-04T12:33:28.775Z,30.16
2016-06-04T12:34:28.778Z,30.07
2016-06-04T12:35:28.797Z,30.11
2016-06-04T12:36:28.800Z,29.98
2016-06-04T12:37:28.818Z,29.94
2016-06-04T12:38:28.868Z,29.95
2016-06-04T12:39:28.839Z,30.11
2016-06-04T12:40:28.841Z,30.11
2016-06-04T12:41:28.844Z,29.97
2016-06-04T12:42:29.457Z,29.98
2016-06-04T12:43:28.568Z,30.11
2016-06-04T12:44:28.884Z,30.22
2016-06-04T12:45:28.886Z,30.26
2016-06-04T12:46:28.905Z,30.24
2016-06-04T12:47:28.907Z,30.1
2016-06-04T12:48:28.770Z,29.97
2016-06-04T12:49:28.928Z,29.95
2016-06-04T12:50:28.931Z,30.01
2016-06-04T12:51:28.949Z,29.92
2016-06-04T12:52:28.951Z,30.01
2016-06-04T12:53:28.970Z,30.01
2016-06-04T12:54:28.973Z,30.01
2016-06-04T12:55:28.976Z,29.98
2016-06-04T12:56:29.291Z,30
2016-06-04T12:57:29.544Z,30.08
2016-06-04T12:58:29.015Z,30.07
2016-06-04T12:59:29.017Z,30.08
2016-06-04T13:00:29.036Z,29.9
2016-06-04T13:01:29.055Z,29.92
2016-06-04T13:02:28.886Z,29.83